createdAt,value
2022-08-31T00:00:34.930Z,100436.16
2022-08-31T00:05:38.943Z,100437.69
2022-08-31T00:10:41.993Z,100441.50
2022-08-31T00:15:46.776Z,100437.25
2022-08-31T00:20:49.005Z,100430.63
2022-08-31T00:25:50.921Z,100427.03
2022-08-31T00:30:52.546Z,100433.06
2022-08-31T00:35:54.783Z,100435.72
2022-08-31T00:40:56.475Z,100442.53
2022-08-31T00:45:58.276Z,100441.19
2022-08-31T00:51:00.721Z,100450.13
2022-08-31T00:56:02.779Z,100453.50
2022-08-31T01:01:08.001Z,100449.22
2022-08-31T01:06:09.728Z,100444.78
2022-08-31T01:11:12.543Z,100452.09
2022-08-31T01:16:19.808Z,100452.78
2022-08-31T01:21:35.308Z,100451.84
2022-08-31T01:26:38.669Z,100450.13
2022-08-31T01:31:45.629Z,100455.44
2022-08-31T01:36:48.169Z,100458.53
2022-08-31T01:41:49.875Z,100458.69
2022-08-31T01:46:54.426Z,100456.06
2022-08-31T01:51:56.091Z,100455.00
2022-08-31T01:56:57.790Z,100456.59
2022-08-31T02:02:30.300Z,100456.53
2022-08-31T02:07:32.031Z,100451.84
2022-08-31T02:12:34.183Z,100440.03
2022-08-31T02:17:35.906Z,100434.47
2022-08-31T02:22:39.721Z,100436.56
2022-08-31T02:27:41.434Z,100430.56
2022-08-31T02:32:44.162Z,100427.28
2022-08-31T02:37:45.881Z,100422.09
2022-08-31T02:42:53.181Z,100425.59
2022-08-31T02:47:57.784Z,100428.44
2022-08-31T02:53:03.580Z,100428.72
2022-08-31T02:58:05.522Z,100431.28
2022-08-31T03:03:07.227Z,100429.75
2022-08-31T03:08:08.942Z,100432.34
2022-08-31T03:13:11.108Z,100419.31
2022-08-31T03:18:12.833Z,100422.31
2022-08-31T03:23:15.374Z,100419.19
2022-08-31T03:28:17.721Z,100426.44
2022-08-31T03:33:36.213Z,100424.47
2022-08-31T03:38:37.851Z,100421.34
2022-08-31T03:43:39.597Z,100423.69
2022-08-31T03:48:41.395Z,100425.72
2022-08-31T03:53:43.331Z,100426.03
2022-08-31T03:58:51.633Z,100436.06
2022-08-31T04:04:16.485Z,100436.16
2022-08-31T04:09:24.004Z,100431.06
2022-08-31T04:14:46.398Z,100439.53
2022-08-31T04:20:07.079Z,100435.72
2022-08-31T04:25:18.242Z,100441.75
2022-08-31T04:30:24.001Z,100451.72
2022-08-31T04:35:25.691Z,100459.94
2022-08-31T04:40:27.921Z,100466.28
2022-08-31T04:45:31.259Z,100459.78
2022-08-31T04:50:32.948Z,100454.34
2022-08-31T04:55:43.659Z,100467.78
2022-08-31T05:00:47.495Z,100469.69
2022-08-31T05:05:53.548Z,100478.31
2022-08-31T05:10:55.416Z,100482.03
2022-08-31T05:15:58.223Z,100484.88
2022-08-31T05:21:11.517Z,100489.59
2022-08-31T05:26:23.503Z,100493.00
2022-08-31T05:31:30.727Z,100484.81
2022-08-31T05:36:36.387Z,100491.59
2022-08-31T05:41:43.375Z,100487.69
2022-08-31T05:46:45.275Z,100494.66
2022-08-31T05:52:00.445Z,100500.19
2022-08-31T05:57:04.631Z,100507.53
2022-08-31T06:02:11.265Z,100512.97
2022-08-31T06:07:14.067Z,100516.88
2022-08-31T06:12:20.585Z,100519.97
2022-08-31T06:17:24.295Z,100516.38
2022-08-31T06:22:26.273Z,100516.88
2022-08-31T06:27:30.289Z,100525.06
2022-08-31T06:32:32.663Z,100529.59
2022-08-31T06:37:38.052Z,100531.44
2022-08-31T06:42:58.162Z,100536.63
2022-08-31T06:48:27.143Z,100542.06
2022-08-31T06:53:31.379Z,100544.19
2022-08-31T06:59:03.701Z,100546.84
2022-08-31T07:04:39.159Z,100542.97
2022-08-31T07:09:41.703Z,100551.44
2022-08-31T07:14:54.444Z,100553.38
2022-08-31T07:19:57.405Z,100551.38
2022-08-31T07:24:59.260Z,100546.91
2022-08-31T07:30:01.770Z,100545.09
2022-08-31T07:35:09.218Z,100547.75
2022-08-31T07:40:33.048Z,100554.78
2022-08-31T07:45:37.800Z,100557.44
2022-08-31T07:50:44.884Z,100560.03
2022-08-31T07:56:00.447Z,100561.84
2022-08-31T08:01:15.063Z,100562.75
2022-08-31T08:06:17.613Z,100559.78
2022-08-31T08:11:52.611Z,100562.22
2022-08-31T08:17:13.080Z,100558.47
2022-08-31T08:22:41.586Z,100567.34
2022-08-31T08:28:05.819Z,100558.47
2022-08-31T08:33:20.258Z,100563.47
2022-08-31T08:38:23.170Z,100566.25
2022-08-31T08:43:33.546Z,100565.06
2022-08-31T08:48:38.444Z,100567.22
2022-08-31T08:53:42.697Z,100565.78
2022-08-31T08:59:00.310Z,100570.53
2022-08-31T09:04:17.205Z,100572.06
2022-08-31T09:09:47.130Z,100574.25
2022-08-31T09:15:03.921Z,100574.03
2022-08-31T09:20:07.534Z,100568.94
2022-08-31T09:25:09.973Z,100569.38
2022-08-31T09:30:56.216Z,100570.81
2022-08-31T09:36:16.761Z,100564.63
2022-08-31T09:41:33.375Z,100562.81
2022-08-31T09:46:35.174Z,100561.56
2022-08-31T09:51:38.605Z,100560.25
2022-08-31T09:56:55.534Z,100556.44
2022-08-31T10:02:00.253Z,100560.19
2022-08-31T10:07:28.717Z,100553.28
2022-08-31T10:12:55.195Z,100550.53
2022-08-31T10:18:34.722Z,100553.81
2022-08-31T10:23:56.318Z,100548.84
2022-08-31T10:29:06.028Z,100544.97
2022-08-31T10:34:32.325Z,100547.84
2022-08-31T10:39:47.161Z,100545.47
2022-08-31T10:45:00.736Z,100542.59
2022-08-31T10:50:05.304Z,100541.91
2022-08-31T10:55:29.098Z,100544.97
2022-08-31T11:00:53.052Z,100545.28
2022-08-31T11:06:02.937Z,100541.81
2022-08-31T11:11:09.663Z,100537.16
2022-08-31T11:16:29.382Z,100537.75
2022-08-31T11:21:50.976Z,100539.13
2022-08-31T11:27:33.507Z,100539.47
2022-08-31T11:32:42.045Z,100530.94
2022-08-31T11:37:53.151Z,100532.09
2022-08-31T11:42:57.778Z,100520.47
2022-08-31T11:48:00.590Z,100525.38
2022-08-31T11:53:31.791Z,100530.47
2022-08-31T11:58:38.388Z,100527.53
2022-08-31T12:03:51.465Z,100529.94
2022-08-31T12:09:16.413Z,100524.69
2022-08-31T12:14:33.275Z,100513.50
2022-08-31T12:20:12.323Z,100516.38
2022-08-31T12:25:39.217Z,100508.03
2022-08-31T12:30:54.743Z,100511.16
2022-08-31T12:36:13.405Z,100508.03
2022-08-31T12:41:15.177Z,100506.97
2022-08-31T12:46:37.964Z,100505.47
2022-08-31T12:51:49.819Z,100504.47
2022-08-31T12:57:05.649Z,100503.72
2022-08-31T13:02:12.057Z,100502.34
2022-08-31T13:07:21.626Z,100504.34
2022-08-31T13:12:24.046Z,100495.91
2022-08-31T13:17:26.059Z,100496.25
2022-08-31T13:22:32.176Z,100494.00
2022-08-31T13:27:38.796Z,100497.47
2022-08-31T13:32:44.882Z,100494.13
2022-08-31T13:38:05.063Z,100493.47
2022-08-31T13:43:09.909Z,100495.72
2022-08-31T13:48:19.256Z,100485.28
2022-08-31T13:53:40.278Z,100490.69
2022-08-31T13:58:42.155Z,100484.59
2022-08-31T14:03:59.503Z,100483.91
2022-08-31T14:09:16.022Z,100481.25
2022-08-31T14:14:24.159Z,100484.72
2022-08-31T14:19:32.200Z,100477.31
2022-08-31T14:24:33.840Z,100462.56
2022-08-31T14:29:37.200Z,100474.22
2022-08-31T14:34:47.191Z,100475.72
2022-08-31T14:39:55.247Z,100472.97
2022-08-31T14:45:05.219Z,100479.88
2022-08-31T14:50:07.062Z,100475.72
2022-08-31T14:55:11.273Z,100472.00
2022-08-31T15:00:21.890Z,100469.94
2022-08-31T15:05:24.992Z,100460.50
2022-08-31T15:10:27.871Z,100459.88
2022-08-31T15:15:29.753Z,100465.94
2022-08-31T15:20:39.940Z,100458.78
2022-08-31T15:25:41.596Z,100459.16
2022-08-31T15:30:43.240Z,100462.53
2022-08-31T15:35:44.849Z,100460.59
2022-08-31T15:40:46.675Z,100461.66
2022-08-31T15:45:48.320Z,100459.97
2022-08-31T15:50:58.920Z,100450.56
2022-08-31T15:56:05.771Z,100446.59
2022-08-31T16:01:14.035Z,100444.03
2022-08-31T16:06:15.830Z,100444.97
2022-08-31T16:11:17.507Z,100450.16
2022-08-31T16:16:20.317Z,100437.38
2022-08-31T16:21:22.055Z,100437.50
2022-08-31T16:26:23.678Z,100448.03
2022-08-31T16:31:27.208Z,100444.78
2022-08-31T16:36:29.264Z,100441.38
2022-08-31T16:41:32.331Z,100448.41
2022-08-31T16:46:41.089Z,100434.59
2022-08-31T16:51:48.457Z,100434.47
2022-08-31T16:56:51.302Z,100435.06
2022-08-31T17:01:54.887Z,100434.53
2022-08-31T17:06:57.301Z,100436.22
2022-08-31T17:12:01.850Z,100445.50
2022-08-31T17:17:06.619Z,100434.84
2022-08-31T17:22:11.170Z,100449.16
2022-08-31T17:27:15.569Z,100451.34
2022-08-31T17:32:19.912Z,100452.38
2022-08-31T17:37:32.512Z,100458.56
2022-08-31T17:42:35.284Z,100456.00
2022-08-31T17:47:36.944Z,100465.44
2022-08-31T17:52:38.530Z,100467.63
2022-08-31T17:57:42.134Z,100464.19
2022-08-31T18:02:44.615Z,100467.88
2022-08-31T18:07:50.058Z,100476.16
2022-08-31T18:12:51.851Z,100475.97
2022-08-31T18:17:55.506Z,100484.69
2022-08-31T18:22:57.620Z,100491.84
2022-08-31T18:28:03.447Z,100487.44
2022-08-31T18:33:06.132Z,100492.34
2022-08-31T18:38:10.785Z,100494.69
2022-08-31T18:43:31.275Z,100497.84
2022-08-31T18:48:33.712Z,100491.53
2022-08-31T18:53:36.241Z,100499.75
2022-08-31T18:58:39.189Z,100503.31
2022-08-31T19:03:41.682Z,100497.22
2022-08-31T19:08:43.974Z,100497.72
2022-08-31T19:13:50.680Z,100504.66
2022-08-31T19:18:57.023Z,100494.72
2022-08-31T19:24:01.646Z,100500.31
2022-08-31T19:29:08.863Z,100499.59
2022-08-31T19:34:12.632Z,100503.47
2022-08-31T19:39:20.489Z,100503.72
2022-08-31T19:44:23.188Z,100502.75
2022-08-31T19:49:25.761Z,100501.31
2022-08-31T19:54:31.335Z,100502.16
2022-08-31T19:59:33.335Z,100494.47
2022-08-31T20:04:36.114Z,100488.22
2022-08-31T20:09:38.062Z,100492.13
2022-08-31T20:14:39.749Z,100496.81
2022-08-31T20:19:42.738Z,100496.22
2022-08-31T20:24:45.192Z,100494.13
2022-08-31T20:29:48.124Z,100497.78
2022-08-31T20:34:51.238Z,100494.25
2022-08-31T20:39:53.350Z,100498.34
2022-08-31T20:44:55.979Z,100490.22
2022-08-31T20:50:00.089Z,100492.78
2022-08-31T20:55:03.807Z,100501.69
2022-08-31T21:00:07.419Z,100494.50
2022-08-31T21:05:37.451Z,100498.81
2022-08-31T21:10:37.611Z,100497.19
2022-08-31T21:15:42.729Z,100496.75
2022-08-31T21:20:46.271Z,100500.13
2022-08-31T21:25:48.131Z,100499.75
2022-08-31T21:30:52.818Z,100500.34
2022-08-31T21:36:02.667Z,100498.34
2022-08-31T21:41:06.146Z,100501.84
2022-08-31T21:46:13.801Z,100498.88
2022-08-31T21:51:24.798Z,100507.56
2022-08-31T21:56:28.826Z,100502.38
2022-08-31T22:01:33.658Z,100506.06
2022-08-31T22:06:37.108Z,100512.44
2022-08-31T22:11:43.922Z,100511.38
2022-08-31T22:16:48.110Z,100511.19
2022-08-31T22:21:55.692Z,100503.78
2022-08-31T22:26:59.690Z,100507.53
2022-08-31T22:32:12.062Z,100513.88
2022-08-31T22:37:14.217Z,100502.25
2022-08-31T22:42:16.349Z,100511.34
2022-08-31T22:47:18.046Z,100509.41
2022-08-31T22:52:19.691Z,100508.53
2022-08-31T22:57:21.324Z,100502.34
2022-08-31T23:02:26.158Z,100501.63
2022-08-31T23:07:28.471Z,100508.97
2022-08-31T23:12:30.139Z,100512.28
2022-08-31T23:17:32.131Z,100503.25
2022-08-31T23:22:36.995Z,100508.72
2022-08-31T23:27:38.618Z,100509.59
2022-08-31T23:32:41.605Z,100515.25
2022-08-31T23:37:43.232Z,100507.06
2022-08-31T23:42:44.832Z,100503.31
2022-08-31T23:47:46.567Z,100500.75
2022-08-31T23:52:48.711Z,100502.03
2022-08-31T23:57:50.506Z,100501.97
